sensor_id;sensor_type;location;lat;lon;timestamp;P1;durP1;ratioP1;P2;durP2;ratioP2
9128;SDS011;4599;50.906;6.786;2023-08-01T00:00:23;1.87;;;0.47;;
9128;SDS011;4599;50.906;6.786;2023-08-01T00:04:45;2.10;;;0.80;;
9128;SDS011;4599;50.906;6.786;2023-08-01T00:09:07;1.13;;;0.57;;
9128;SDS011;4599;50.906;6.786;2023-08-01T00:13:30;2.47;;;0.70;;
9128;SDS011;4599;50.906;6.786;2023-08-01T00:17:52;1.33;;;0.40;;
9128;SDS011;4599;50.906;6.786;2023-08-01T00:22:14;1.80;;;0.47;;
9128;SDS011;4599;50.906;6.786;2023-08-01T00:26:35;2.13;;;0.67;;
9128;SDS011;4599;50.906;6.786;2023-08-01T00:31:02;0.87;;;0.50;;
9128;SDS011;4599;50.906;6.786;2023-08-01T00:35:28;2.27;;;0.60;;
9128;SDS011;4599;50.906;6.786;2023-08-01T00:39:50;3.10;;;0.70;;
9128;SDS011;4599;50.906;6.786;2023-08-01T00:44:12;4.87;;;0.67;;
9128;SDS011;4599;50.906;6.786;2023-08-01T00:48:35;0.80;;;0.30;;
9128;SDS011;4599;50.906;6.786;2023-08-01T00:52:57;0.70;;;0.40;;
9128;SDS011;4599;50.906;6.786;2023-08-01T00:57:19;1.10;;;0.43;;
9128;SDS011;4599;50.906;6.786;2023-08-01T01:01:41;4.10;;;0.60;;
9128;SDS011;4599;50.906;6.786;2023-08-01T01:06:06;0.40;;;0.40;;
9128;SDS011;4599;50.906;6.786;2023-08-01T01:10:33;0.80;;;0.50;;
9128;SDS011;4599;50.906;6.786;2023-08-01T01:14:54;1.63;;;0.50;;
9128;SDS011;4599;50.906;6.786;2023-08-01T01:19:16;2.43;;;0.50;;
9128;SDS011;4599;50.906;6.786;2023-08-01T01:23:40;1.83;;;0.60;;
9128;SDS011;4599;50.906;6.786;2023-08-01T01:28:03;0.87;;;0.60;;
9128;SDS011;4599;50.906;6.786;2023-08-01T01:32:26;0.80;;;0.57;;
9128;SDS011;4599;50.906;6.786;2023-08-01T01:36:48;0.83;;;0.60;;
9128;SDS011;4599;50.906;6.786;2023-08-01T01:41:12;2.87;;;0.60;;
9128;SDS011;4599;50.906;6.786;2023-08-01T01:45:34;0.57;;;0.50;;
9128;SDS011;4599;50.906;6.786;2023-08-01T01:49:56;2.37;;;0.60;;
9128;SDS011;4599;50.906;6.786;2023-08-01T01:54:17;1.57;;;0.60;;
9128;SDS011;4599;50.906;6.786;2023-08-01T01:58:41;1.77;;;0.73;;
9128;SDS011;4599;50.906;6.786;2023-08-01T02:03:03;2.83;;;0.83;;
9128;SDS011;4599;50.906;6.786;2023-08-01T02:07:24;1.30;;;0.57;;
9128;SDS011;4599;50.906;6.786;2023-08-01T02:11:46;2.07;;;0.60;;
9128;SDS011;4599;50.906;6.786;2023-08-01T02:16:09;0.70;;;0.70;;
9128;SDS011;4599;50.906;6.786;2023-08-01T02:20:31;1.27;;;0.90;;
9128;SDS011;4599;50.906;6.786;2023-08-01T02:24:53;0.90;;;0.90;;
9128;SDS011;4599;50.906;6.786;2023-08-01T02:29:15;5.33;;;1.47;;
9128;SDS011;4599;50.906;6.786;2023-08-01T02:33:38;1.30;;;1.03;;
9128;SDS011;4599;50.906;6.786;2023-08-01T02:38:00;2.70;;;1.03;;
9128;SDS011;4599;50.906;6.786;2023-08-01T02:42:22;1.00;;;1.00;;
9128;SDS011;4599;50.906;6.786;2023-08-01T02:46:44;2.40;;;1.00;;
9128;SDS011;4599;50.906;6.786;2023-08-01T02:51:07;3.23;;;1.00;;
9128;SDS011;4599;50.906;6.786;2023-08-01T02:55:29;3.13;;;1.00;;
9128;SDS011;4599;50.906;6.786;2023-08-01T02:59:51;1.47;;;0.90;;
9128;SDS011;4599;50.906;6.786;2023-08-01T03:04:13;2.80;;;1.30;;
9128;SDS011;4599;50.906;6.786;2023-08-01T03:08:36;3.40;;;1.20;;
9128;SDS011;4599;50.906;6.786;2023-08-01T03:12:58;2.30;;;1.30;;
9128;SDS011;4599;50.906;6.786;2023-08-01T03:17:20;2.13;;;1.30;;
9128;SDS011;4599;50.906;6.786;2023-08-01T03:21:42;2.83;;;1.40;;
9128;SDS011;4599;50.906;6.786;2023-08-01T03:26:05;2.53;;;1.50;;
9128;SDS011;4599;50.906;6.786;2023-08-01T03:30:27;3.07;;;1.60;;
9128;SDS011;4599;50.906;6.786;2023-08-01T03:34:49;4.57;;;1.77;;
9128;SDS011;4599;50.906;6.786;2023-08-01T03:39:11;2.10;;;1.63;;
9128;SDS011;4599;50.906;6.786;2023-08-01T03:43:34;6.47;;;2.53;;
9128;SDS011;4599;50.906;6.786;2023-08-01T03:47:56;2.80;;;2.00;;
9128;SDS011;4599;50.906;6.786;2023-08-01T03:52:19;4.57;;;2.27;;
9128;SDS011;4599;50.906;6.786;2023-08-01T03:56:41;3.43;;;2.50;;
9128;SDS011;4599;50.906;6.786;2023-08-01T04:01:04;4.40;;;3.17;;
9128;SDS011;4599;50.906;6.786;2023-08-01T04:05:27;7.93;;;3.30;;
9128;SDS011;4599;50.906;6.786;2023-08-01T04:09:49;7.07;;;3.33;;
9128;SDS011;4599;50.906;6.786;2023-08-01T04:14:11;7.27;;;3.70;;
9128;SDS011;4599;50.906;6.786;2023-08-01T04:18:35;9.70;;;4.37;;
9128;SDS011;4599;50.906;6.786;2023-08-01T04:22:57;7.77;;;4.13;;
9128;SDS011;4599;50.906;6.786;2023-08-01T04:27:18;6.23;;;3.73;;
9128;SDS011;4599;50.906;6.786;2023-08-01T04:31:40;9.60;;;3.80;;
9128;SDS011;4599;50.906;6.786;2023-08-01T04:36:04;7.53;;;3.87;;
9128;SDS011;4599;50.906;6.786;2023-08-01T04:40:26;6.40;;;4.07;;
9128;SDS011;4599;50.906;6.786;2023-08-01T04:44:47;8.70;;;4.07;;
9128;SDS011;4599;50.906;6.786;2023-08-01T04:49:09;5.83;;;3.90;;
9128;SDS011;4599;50.906;6.786;2023-08-01T04:53:32;5.97;;;4.07;;
9128;SDS011;4599;50.906;6.786;2023-08-01T04:57:54;7.97;;;4.57;;
9128;SDS011;4599;50.906;6.786;2023-08-01T05:02:16;5.87;;;4.23;;
9128;SDS011;4599;50.906;6.786;2023-08-01T05:06:38;6.43;;;4.10;;
9128;SDS011;4599;50.906;6.786;2023-08-01T05:11:01;8.87;;;4.40;;
9128;SDS011;4599;50.906;6.786;2023-08-01T05:15:23;8.53;;;4.00;;
9128;SDS011;4599;50.906;6.786;2023-08-01T05:19:45;7.07;;;4.00;;
9128;SDS011;4599;50.906;6.786;2023-08-01T05:24:07;7.33;;;4.17;;
9128;SDS011;4599;50.906;6.786;2023-08-01T05:28:30;7.70;;;3.60;;
9128;SDS011;4599;50.906;6.786;2023-08-01T05:32:52;9.67;;;3.90;;
9128;SDS011;4599;50.906;6.786;2023-08-01T05:37:14;4.97;;;3.47;;
9128;SDS011;4599;50.906;6.786;2023-08-01T05:41:36;5.60;;;3.60;;
9128;SDS011;4599;50.906;6.786;2023-08-01T05:45:59;7.73;;;4.00;;
9128;SDS011;4599;50.906;6.786;2023-08-01T05:50:21;7.27;;;3.77;;
9128;SDS011;4599;50.906;6.786;2023-08-01T05:54:43;9.60;;;3.90;;
9128;SDS011;4599;50.906;6.786;2023-08-01T05:59:05;7.33;;;3.50;;
9128;SDS011;4599;50.906;6.786;2023-08-01T06:03:29;7.97;;;3.90;;
9128;SDS011;4599;50.906;6.786;2023-08-01T06:07:51;9.30;;;3.67;;
9128;SDS011;4599;50.906;6.786;2023-08-01T06:12:13;9.17;;;3.97;;
9128;SDS011;4599;50.906;6.786;2023-08-01T06:16:34;6.67;;;3.93;;
9128;SDS011;4599;50.906;6.786;2023-08-01T06:20:58;7.03;;;3.70;;
9128;SDS011;4599;50.906;6.786;2023-08-01T06:25:20;6.90;;;3.30;;
9128;SDS011;4599;50.906;6.786;2023-08-01T06:29:42;7.17;;;3.50;;
9128;SDS011;4599;50.906;6.786;2023-08-01T06:34:04;10.23;;;3.70;;
9128;SDS011;4599;50.906;6.786;2023-08-01T06:38:27;8.20;;;3.80;;
9128;SDS011;4599;50.906;6.786;2023-08-01T06:42:49;5.67;;;3.53;;
9128;SDS011;4599;50.906;6.786;2023-08-01T06:47:11;8.83;;;3.83;;
9128;SDS011;4599;50.906;6.786;2023-08-01T06:51:33;6.57;;;3.40;;
9128;SDS011;4599;50.906;6.786;2023-08-01T06:55:56;8.37;;;3.23;;
9128;SDS011;4599;50.906;6.786;2023-08-01T07:00:18;8.63;;;3.60;;
9128;SDS011;4599;50.906;6.786;2023-08-01T07:04:40;9.80;;;4.03;;
9128;SDS011;4599;50.906;6.786;2023-08-01T07:09:02;9.87;;;4.17;;
9128;SDS011;4599;50.906;6.786;2023-08-01T07:13:26;7.10;;;3.93;;
9128;SDS011;4599;50.906;6.786;2023-08-01T07:17:49;7.00;;;4.00;;
9128;SDS011;4599;50.906;6.786;2023-08-01T07:22:11;11.27;;;3.90;;
9128;SDS011;4599;50.906;6.786;2023-08-01T07:26:33;8.90;;;4.53;;
9128;SDS011;4599;50.906;6.786;2023-08-01T07:30:59;6.93;;;3.80;;
9128;SDS011;4599;50.906;6.786;2023-08-01T07:35:21;9.50;;;4.20;;
9128;SDS011;4599;50.906;6.786;2023-08-01T07:39:43;9.67;;;3.77;;
9128;SDS011;4599;50.906;6.786;2023-08-01T07:44:05;8.07;;;4.00;;
9128;SDS011;4599;50.906;6.786;2023-08-01T07:48:28;11.70;;;4.57;;
9128;SDS011;4599;50.906;6.786;2023-08-01T07:52:50;7.87;;;3.70;;
9128;SDS011;4599;50.906;6.786;2023-08-01T07:57:12;9.63;;;3.97;;
9128;SDS011;4599;50.906;6.786;2023-08-01T08:01:34;8.33;;;3.90;;
9128;SDS011;4599;50.906;6.786;2023-08-01T08:05:57;7.47;;;3.50;;
9128;SDS011;4599;50.906;6.786;2023-08-01T08:10:20;10.00;;;4.03;;
9128;SDS011;4599;50.906;6.786;2023-08-01T08:14:42;8.73;;;3.97;;
9128;SDS011;4599;50.906;6.786;2023-08-01T08:19:04;9.93;;;3.97;;
9128;SDS011;4599;50.906;6.786;2023-08-01T08:23:27;7.27;;;4.10;;
9128;SDS011;4599;50.906;6.786;2023-08-01T08:27:49;8.20;;;4.07;;
9128;SDS011;4599;50.906;6.786;2023-08-01T08:32:11;7.33;;;3.60;;
9128;SDS011;4599;50.906;6.786;2023-08-01T08:36:33;6.10;;;3.60;;
9128;SDS011;4599;50.906;6.786;2023-08-01T08:40:58;6.80;;;3.50;;
9128;SDS011;4599;50.906;6.786;2023-08-01T08:45:28;6.27;;;3.30;;
9128;SDS011;4599;50.906;6.786;2023-08-01T08:49:55;5.17;;;2.70;;
9128;SDS011;4599;50.906;6.786;2023-08-01T08:54:17;5.70;;;2.80;;
9128;SDS011;4599;50.906;6.786;2023-08-01T08:58:42;8.00;;;3.07;;
9128;SDS011;4599;50.906;6.786;2023-08-01T09:03:06;5.37;;;2.83;;
9128;SDS011;4599;50.906;6.786;2023-08-01T09:07:29;6.27;;;3.00;;
9128;SDS011;4599;50.906;6.786;2023-08-01T09:11:55;5.30;;;2.87;;
9128;SDS011;4599;50.906;6.786;2023-08-01T09:16:18;6.67;;;2.80;;
9128;SDS011;4599;50.906;6.786;2023-08-01T09:20:41;5.47;;;2.60;;
9128;SDS011;4599;50.906;6.786;2023-08-01T09:25:05;6.20;;;3.20;;
9128;SDS011;4599;50.906;6.786;2023-08-01T09:29:27;4.80;;;2.90;;
9128;SDS011;4599;50.906;6.786;2023-08-01T09:33:50;5.50;;;3.10;;
9128;SDS011;4599;50.906;6.786;2023-08-01T09:38:12;6.00;;;2.70;;
9128;SDS011;4599;50.906;6.786;2023-08-01T09:42:38;10.87;;;3.07;;
9128;SDS011;4599;50.906;6.786;2023-08-01T09:47:02;3.87;;;2.57;;
9128;SDS011;4599;50.906;6.786;2023-08-01T09:51:26;9.03;;;2.73;;
9128;SDS011;4599;50.906;6.786;2023-08-01T09:55:48;8.17;;;2.60;;
9128;SDS011;4599;50.906;6.786;2023-08-01T10:00:12;8.20;;;2.93;;
9128;SDS011;4599;50.906;6.786;2023-08-01T10:04:35;4.83;;;2.50;;
9128;SDS011;4599;50.906;6.786;2023-08-01T10:08:59;5.80;;;2.57;;
9128;SDS011;4599;50.906;6.786;2023-08-01T10:13:23;7.70;;;2.57;;
9128;SDS011;4599;50.906;6.786;2023-08-01T10:17:45;4.97;;;2.63;;
9128;SDS011;4599;50.906;6.786;2023-08-01T10:22:08;6.80;;;2.87;;
9128;SDS011;4599;50.906;6.786;2023-08-01T10:26:32;6.03;;;2.80;;
9128;SDS011;4599;50.906;6.786;2023-08-01T10:30:54;4.40;;;2.80;;
9128;SDS011;4599;50.906;6.786;2023-08-01T10:35:33;5.40;;;2.50;;
9128;SDS011;4599;50.906;6.786;2023-08-01T10:39:57;5.27;;;2.30;;
9128;SDS011;4599;50.906;6.786;2023-08-01T10:44:21;3.10;;;2.13;;
9128;SDS011;4599;50.906;6.786;2023-08-01T10:48:49;5.88;;;2.65;;
9128;SDS011;4599;50.906;6.786;2023-08-01T10:53:12;4.80;;;2.10;;
9128;SDS011;4599;50.906;6.786;2023-08-01T10:57:34;4.47;;;2.10;;
9128;SDS011;4599;50.906;6.786;2023-08-01T11:01:59;3.85;;;2.20;;
9128;SDS011;4599;50.906;6.786;2023-08-01T11:06:21;5.45;;;1.85;;
9128;SDS011;4599;50.906;6.786;2023-08-01T11:10:48;4.63;;;2.50;;
9128;SDS011;4599;50.906;6.786;2023-08-01T11:15:12;3.90;;;2.05;;
9128;SDS011;4599;50.906;6.786;2023-08-01T11:19:36;3.50;;;1.85;;
9128;SDS011;4599;50.906;6.786;2023-08-01T11:23:58;5.07;;;2.10;;
9128;SDS011;4599;50.906;6.786;2023-08-01T11:28:20;3.85;;;1.95;;
9128;SDS011;4599;50.906;6.786;2023-08-01T11:32:42;7.22;;;2.35;;
9128;SDS011;4599;50.906;6.786;2023-08-01T11:37:05;5.15;;;2.10;;
9128;SDS011;4599;50.906;6.786;2023-08-01T11:41:27;2.88;;;1.80;;
9128;SDS011;4599;50.906;6.786;2023-08-01T11:45:50;3.63;;;1.93;;
9128;SDS011;4599;50.906;6.786;2023-08-01T11:50:12;4.00;;;1.90;;
9128;SDS011;4599;50.906;6.786;2023-08-01T11:54:44;4.30;;;2.10;;
9128;SDS011;4599;50.906;6.786;2023-08-01T11:59:10;6.07;;;2.20;;
9128;SDS011;4599;50.906;6.786;2023-08-01T12:03:41;3.33;;;2.13;;
9128;SDS011;4599;50.906;6.786;2023-08-01T12:08:08;3.67;;;1.90;;
9128;SDS011;4599;50.906;6.786;2023-08-01T12:12:32;4.50;;;2.10;;
9128;SDS011;4599;50.906;6.786;2023-08-01T12:17:04;6.80;;;2.20;;
9128;SDS011;4599;50.906;6.786;2023-08-01T12:21:27;3.10;;;2.10;;
9128;SDS011;4599;50.906;6.786;2023-08-01T12:25:49;4.80;;;2.00;;
9128;SDS011;4599;50.906;6.786;2023-08-01T12:30:13;4.67;;;1.87;;
9128;SDS011;4599;50.906;6.786;2023-08-01T12:34:37;4.10;;;1.83;;
9128;SDS011;4599;50.906;6.786;2023-08-01T12:38:59;4.53;;;1.70;;
9128;SDS011;4599;50.906;6.786;2023-08-01T12:43:21;2.70;;;1.90;;
9128;SDS011;4599;50.906;6.786;2023-08-01T12:47:45;5.43;;;1.73;;
9128;SDS011;4599;50.906;6.786;2023-08-01T12:52:07;2.63;;;1.70;;
9128;SDS011;4599;50.906;6.786;2023-08-01T12:56:29;2.90;;;1.73;;
9128;SDS011;4599;50.906;6.786;2023-08-01T13:00:51;4.87;;;1.80;;
9128;SDS011;4599;50.906;6.786;2023-08-01T13:05:19;3.83;;;1.70;;
9128;SDS011;4599;50.906;6.786;2023-08-01T13:09:43;2.47;;;1.63;;
9128;SDS011;4599;50.906;6.786;2023-08-01T13:14:05;5.80;;;1.80;;
9128;SDS011;4599;50.906;6.786;2023-08-01T13:18:27;5.70;;;1.60;;
9128;SDS011;4599;50.906;6.786;2023-08-01T13:22:51;3.87;;;1.77;;
9128;SDS011;4599;50.906;6.786;2023-08-01T13:27:13;4.93;;;1.83;;
9128;SDS011;4599;50.906;6.786;2023-08-01T13:31:35;5.57;;;1.90;;
9128;SDS011;4599;50.906;6.786;2023-08-01T13:35:57;1.87;;;1.37;;
9128;SDS011;4599;50.906;6.786;2023-08-01T13:40:20;4.20;;;1.67;;
9128;SDS011;4599;50.906;6.786;2023-08-01T13:44:42;5.40;;;1.77;;
9128;SDS011;4599;50.906;6.786;2023-08-01T13:49:07;4.50;;;1.70;;
9128;SDS011;4599;50.906;6.786;2023-08-01T13:53:29;5.97;;;2.07;;
9128;SDS011;4599;50.906;6.786;2023-08-01T13:57:52;4.50;;;1.80;;
9128;SDS011;4599;50.906;6.786;2023-08-01T14:02:14;3.73;;;1.90;;
9128;SDS011;4599;50.906;6.786;2023-08-01T14:06:36;4.37;;;1.83;;
9128;SDS011;4599;50.906;6.786;2023-08-01T14:10:58;6.87;;;1.63;;
9128;SDS011;4599;50.906;6.786;2023-08-01T14:15:22;6.83;;;2.10;;
9128;SDS011;4599;50.906;6.786;2023-08-01T14:19:43;3.90;;;1.87;;
9128;SDS011;4599;50.906;6.786;2023-08-01T14:24:05;5.80;;;1.93;;
9128;SDS011;4599;50.906;6.786;2023-08-01T14:28:27;6.40;;;1.83;;
9128;SDS011;4599;50.906;6.786;2023-08-01T14:32:51;4.13;;;1.70;;
9128;SDS011;4599;50.906;6.786;2023-08-01T14:37:13;5.20;;;1.60;;
9128;SDS011;4599;50.906;6.786;2023-08-01T14:41:35;6.20;;;1.93;;
9128;SDS011;4599;50.906;6.786;2023-08-01T14:46:17;5.03;;;1.87;;
9128;SDS011;4599;50.906;6.786;2023-08-01T14:50:40;3.67;;;1.83;;
9128;SDS011;4599;50.906;6.786;2023-08-01T14:55:02;4.27;;;2.00;;
9128;SDS011;4599;50.906;6.786;2023-08-01T14:59:24;4.77;;;2.40;;
9128;SDS011;4599;50.906;6.786;2023-08-01T15:03:46;5.30;;;1.80;;
9128;SDS011;4599;50.906;6.786;2023-08-01T15:08:09;4.90;;;1.93;;
9128;SDS011;4599;50.906;6.786;2023-08-01T15:12:31;4.50;;;1.90;;
9128;SDS011;4599;50.906;6.786;2023-08-01T15:16:53;7.23;;;2.00;;
9128;SDS011;4599;50.906;6.786;2023-08-01T15:21:15;8.67;;;1.60;;
9128;SDS011;4599;50.906;6.786;2023-08-01T15:25:38;4.93;;;1.97;;
9128;SDS011;4599;50.906;6.786;2023-08-01T15:30:00;4.33;;;1.97;;
9128;SDS011;4599;50.906;6.786;2023-08-01T15:34:23;3.37;;;1.70;;
9128;SDS011;4599;50.906;6.786;2023-08-01T15:38:45;5.37;;;2.13;;
9128;SDS011;4599;50.906;6.786;2023-08-01T15:43:08;3.30;;;1.73;;
9128;SDS011;4599;50.906;6.786;2023-08-01T15:47:30;2.73;;;1.40;;
9128;SDS011;4599;50.906;6.786;2023-08-01T15:51:52;4.63;;;2.13;;
9128;SDS011;4599;50.906;6.786;2023-08-01T15:56:14;4.77;;;1.80;;
9128;SDS011;4599;50.906;6.786;2023-08-01T16:00:37;2.27;;;1.50;;
9128;SDS011;4599;50.906;6.786;2023-08-01T16:05:00;2.70;;;1.40;;
9128;SDS011;4599;50.906;6.786;2023-08-01T16:09:22;2.13;;;1.20;;
9128;SDS011;4599;50.906;6.786;2023-08-01T16:13:44;2.77;;;1.30;;
9128;SDS011;4599;50.906;6.786;2023-08-01T16:18:08;2.67;;;1.40;;
9128;SDS011;4599;50.906;6.786;2023-08-01T16:22:30;4.23;;;1.57;;
9128;SDS011;4599;50.906;6.786;2023-08-01T16:26:52;3.37;;;1.80;;
9128;SDS011;4599;50.906;6.786;2023-08-01T16:31:14;5.57;;;1.70;;
9128;SDS011;4599;50.906;6.786;2023-08-01T16:35:38;2.83;;;1.60;;
9128;SDS011;4599;50.906;6.786;2023-08-01T16:40:00;6.17;;;2.23;;
9128;SDS011;4599;50.906;6.786;2023-08-01T16:44:22;3.93;;;1.70;;
9128;SDS011;4599;50.906;6.786;2023-08-01T16:48:44;4.90;;;2.10;;
9128;SDS011;4599;50.906;6.786;2023-08-01T16:53:07;4.03;;;1.80;;
9128;SDS011;4599;50.906;6.786;2023-08-01T16:57:29;3.20;;;1.60;;
9128;SDS011;4599;50.906;6.786;2023-08-01T17:01:51;6.83;;;2.20;;
9128;SDS011;4599;50.906;6.786;2023-08-01T17:06:13;6.37;;;1.87;;
9128;SDS011;4599;50.906;6.786;2023-08-01T17:10:36;4.60;;;1.90;;
9128;SDS011;4599;50.906;6.786;2023-08-01T17:14:58;5.67;;;1.97;;
9128;SDS011;4599;50.906;6.786;2023-08-01T17:19:21;4.43;;;1.90;;
9128;SDS011;4599;50.906;6.786;2023-08-01T17:23:43;4.00;;;2.00;;
9128;SDS011;4599;50.906;6.786;2023-08-01T17:28:07;3.57;;;1.60;;
9128;SDS011;4599;50.906;6.786;2023-08-01T17:32:29;3.83;;;1.90;;
9128;SDS011;4599;50.906;6.786;2023-08-01T17:36:51;5.87;;;1.67;;
9128;SDS011;4599;50.906;6.786;2023-08-01T17:41:17;5.60;;;1.93;;
9128;SDS011;4599;50.906;6.786;2023-08-01T17:45:41;3.73;;;1.97;;
9128;SDS011;4599;50.906;6.786;2023-08-01T17:50:03;5.20;;;1.97;;
9128;SDS011;4599;50.906;6.786;2023-08-01T17:54:25;4.07;;;1.90;;
9128;SDS011;4599;50.906;6.786;2023-08-01T17:58:47;7.13;;;1.90;;
9128;SDS011;4599;50.906;6.786;2023-08-01T18:03:11;4.20;;;1.80;;
9128;SDS011;4599;50.906;6.786;2023-08-01T18:07:33;4.07;;;1.93;;
9128;SDS011;4599;50.906;6.786;2023-08-01T18:11:55;5.17;;;1.87;;
9128;SDS011;4599;50.906;6.786;2023-08-01T18:16:20;4.70;;;1.80;;
9128;SDS011;4599;50.906;6.786;2023-08-01T18:20:44;3.67;;;1.67;;
9128;SDS011;4599;50.906;6.786;2023-08-01T18:25:06;4.37;;;1.80;;
9128;SDS011;4599;50.906;6.786;2023-08-01T18:29:30;2.73;;;1.50;;
9128;SDS011;4599;50.906;6.786;2023-08-01T18:33:52;4.40;;;1.70;;
9128;SDS011;4599;50.906;6.786;2023-08-01T18:38:15;4.97;;;2.13;;
9128;SDS011;4599;50.906;6.786;2023-08-01T18:42:37;3.80;;;1.83;;
9128;SDS011;4599;50.906;6.786;2023-08-01T18:46:59;4.70;;;1.80;;
9128;SDS011;4599;50.906;6.786;2023-08-01T18:51:21;5.33;;;1.73;;
9128;SDS011;4599;50.906;6.786;2023-08-01T18:55:45;8.23;;;2.17;;
9128;SDS011;4599;50.906;6.786;2023-08-01T19:00:07;7.47;;;2.20;;
9128;SDS011;4599;50.906;6.786;2023-08-01T19:04:30;4.60;;;1.93;;
9128;SDS011;4599;50.906;6.786;2023-08-01T19:08:52;4.97;;;2.10;;
9128;SDS011;4599;50.906;6.786;2023-08-01T19:13:36;6.77;;;2.47;;
9128;SDS011;4599;50.906;6.786;2023-08-01T19:17:58;4.87;;;2.10;;
9128;SDS011;4599;50.906;6.786;2023-08-01T19:22:20;4.87;;;1.93;;
9128;SDS011;4599;50.906;6.786;2023-08-01T19:26:49;6.57;;;2.17;;
9128;SDS011;4599;50.906;6.786;2023-08-01T19:31:12;5.67;;;2.30;;
9128;SDS011;4599;50.906;6.786;2023-08-01T19:35:38;6.20;;;2.37;;
9128;SDS011;4599;50.906;6.786;2023-08-01T19:40:01;4.60;;;1.90;;
9128;SDS011;4599;50.906;6.786;2023-08-01T19:44:23;6.90;;;2.07;;
9128;SDS011;4599;50.906;6.786;2023-08-01T19:48:46;5.87;;;1.83;;
9128;SDS011;4599;50.906;6.786;2023-08-01T19:53:11;5.33;;;1.97;;
9128;SDS011;4599;50.906;6.786;2023-08-01T19:57:33;6.63;;;2.00;;
9128;SDS011;4599;50.906;6.786;2023-08-01T20:01:55;3.80;;;1.93;;
9128;SDS011;4599;50.906;6.786;2023-08-01T20:06:19;5.57;;;1.90;;
9128;SDS011;4599;50.906;6.786;2023-08-01T20:10:41;6.07;;;1.67;;
9128;SDS011;4599;50.906;6.786;2023-08-01T20:15:03;7.97;;;2.13;;
9128;SDS011;4599;50.906;6.786;2023-08-01T20:19:26;6.67;;;2.00;;
9128;SDS011;4599;50.906;6.786;2023-08-01T20:23:49;11.13;;;2.30;;
9128;SDS011;4599;50.906;6.786;2023-08-01T20:28:11;7.30;;;2.40;;
9128;SDS011;4599;50.906;6.786;2023-08-01T20:32:33;6.07;;;1.90;;
9128;SDS011;4599;50.906;6.786;2023-08-01T20:36:55;5.43;;;2.40;;
9128;SDS011;4599;50.906;6.786;2023-08-01T20:41:18;8.27;;;2.23;;
9128;SDS011;4599;50.906;6.786;2023-08-01T20:45:40;8.13;;;2.60;;
9128;SDS011;4599;50.906;6.786;2023-08-01T20:50:02;4.73;;;2.50;;
9128;SDS011;4599;50.906;6.786;2023-08-01T20:54:24;4.37;;;1.80;;
9128;SDS011;4599;50.906;6.786;2023-08-01T20:58:49;5.63;;;1.73;;
9128;SDS011;4599;50.906;6.786;2023-08-01T21:03:11;5.50;;;2.17;;
9128;SDS011;4599;50.906;6.786;2023-08-01T21:07:33;6.17;;;2.10;;
9128;SDS011;4599;50.906;6.786;2023-08-01T21:11:55;5.77;;;1.73;;
9128;SDS011;4599;50.906;6.786;2023-08-01T21:16:19;5.17;;;2.27;;
9128;SDS011;4599;50.906;6.786;2023-08-01T21:20:41;8.53;;;2.20;;
9128;SDS011;4599;50.906;6.786;2023-08-01T21:25:03;4.93;;;2.13;;
9128;SDS011;4599;50.906;6.786;2023-08-01T21:29:26;6.63;;;2.00;;
9128;SDS011;4599;50.906;6.786;2023-08-01T21:33:49;10.47;;;2.30;;
9128;SDS011;4599;50.906;6.786;2023-08-01T21:38:11;6.37;;;2.47;;
9128;SDS011;4599;50.906;6.786;2023-08-01T21:42:33;5.37;;;2.10;;
9128;SDS011;4599;50.906;6.786;2023-08-01T21:46:55;4.40;;;1.73;;
9128;SDS011;4599;50.906;6.786;2023-08-01T21:51:18;6.47;;;2.20;;
9128;SDS011;4599;50.906;6.786;2023-08-01T21:55:40;14.77;;;2.50;;
9128;SDS011;4599;50.906;6.786;2023-08-01T22:00:02;4.80;;;2.03;;
9128;SDS011;4599;50.906;6.786;2023-08-01T22:04:24;5.07;;;2.00;;
9128;SDS011;4599;50.906;6.786;2023-08-01T22:08:47;6.20;;;2.07;;
9128;SDS011;4599;50.906;6.786;2023-08-01T22:13:09;5.27;;;1.90;;
9128;SDS011;4599;50.906;6.786;2023-08-01T22:17:31;5.43;;;2.03;;
9128;SDS011;4599;50.906;6.786;2023-08-01T22:21:53;11.07;;;2.27;;
9128;SDS011;4599;50.906;6.786;2023-08-01T22:26:17;5.93;;;1.93;;
9128;SDS011;4599;50.906;6.786;2023-08-01T22:30:39;7.37;;;2.00;;
9128;SDS011;4599;50.906;6.786;2023-08-01T22:35:01;4.77;;;1.63;;
9128;SDS011;4599;50.906;6.786;2023-08-01T22:39:23;6.60;;;1.97;;
9128;SDS011;4599;50.906;6.786;2023-08-01T22:43:46;6.60;;;2.00;;
9128;SDS011;4599;50.906;6.786;2023-08-01T22:48:09;5.47;;;1.63;;
9128;SDS011;4599;50.906;6.786;2023-08-01T22:52:31;5.03;;;1.67;;
9128;SDS011;4599;50.906;6.786;2023-08-01T22:56:53;4.93;;;1.90;;
9128;SDS011;4599;50.906;6.786;2023-08-01T23:01:16;4.77;;;1.90;;
9128;SDS011;4599;50.906;6.786;2023-08-01T23:05:39;4.23;;;1.57;;
9128;SDS011;4599;50.906;6.786;2023-08-01T23:10:01;5.27;;;1.70;;
9128;SDS011;4599;50.906;6.786;2023-08-01T23:14:25;9.73;;;1.87;;
9128;SDS011;4599;50.906;6.786;2023-08-01T23:18:48;6.30;;;1.40;;
9128;SDS011;4599;50.906;6.786;2023-08-01T23:23:10;3.90;;;1.60;;
9128;SDS011;4599;50.906;6.786;2023-08-01T23:27:32;7.47;;;1.60;;
9128;SDS011;4599;50.906;6.786;2023-08-01T23:31:54;3.77;;;1.67;;
9128;SDS011;4599;50.906;6.786;2023-08-01T23:36:17;2.90;;;1.30;;
9128;SDS011;4599;50.906;6.786;2023-08-01T23:40:39;4.60;;;1.60;;
9128;SDS011;4599;50.906;6.786;2023-08-01T23:45:01;6.47;;;1.90;;
9128;SDS011;4599;50.906;6.786;2023-08-01T23:49:23;6.43;;;1.80;;
9128;SDS011;4599;50.906;6.786;2023-08-01T23:53:47;5.87;;;1.60;;
9128;SDS011;4599;50.906;6.786;2023-08-01T23:58:09;4.30;;;1.63;;
